Time;durP1;ratioP1;P1;durP2;ratioP2;P2;SDS_P1;SDS_P2;PMS_P1;PMS_P2;Temp;Humidity;BMP_temperature;BMP_pressure;BME280_temperature;BME280_humidity;BME280_pressure;Samples;Min_cycle;Max_cycle;Signal;HPM_P1;HPM_P2
2022/11/12 00:07:18;;;;;;;;;;;;;;;;;;;;;
2022/11/12 00:10:35;;;;;;;;;;;;;;;;;;;;;
2022/11/12 02:10:41;;;;;;;;;52.25;40.75;;;;;10.23;72.20;102540.34;6092045;23;45293;-79
2022/11/12 02:16:56;;;;;;;;;;;;;;;;;;;;;
2022/11/12 02:19:51;;;;;;;;;42.75;38.25;;;;;10.42;72.07;102599.66;6188548;23;67575;-79
2022/11/12 02:26:26;;;;;;;;;50.25;40.00;;;;;10.26;72.24;102580.78;6249170;22;46077;-79
2022/11/12 02:29:18;;;;;;;;;;;;;;;;;;;;;
2022/11/12 02:32:19;;;;;;;;;;;;;;;;;;;;;
2022/11/12 02:35:03;;;;;;;;;40.50;34.75;;;;;9.90;72.49;102535.94;6245956;22;72774;-79
2022/11/12 02:37:41;;;;;;;;;47.00;39.25;;;;;10.26;72.41;102598.31;6245255;22;46179;-79
2022/11/12 02:40:10;;;;;;;;;48.25;41.25;;;;;10.11;72.77;102575.13;6245035;22;45468;-79
2022/11/12 02:42:38;;;;;;;;;60.00;48.50;;;;;10.22;72.59;102596.47;6247545;22;45441;-78
2022/11/12 02:45:25;;;;;;;;;63.75;51.00;;;;;9.84;72.91;102531.41;6245426;22;45181;-79
2022/11/12 02:47:53;;;;;;;;;108.67;95.33;;;;;10.27;73.13;102585.25;6244499;22;47679;-79
2022/11/12 02:50:24;;;;;;;;;53.00;42.25;;;;;9.87;73.18;102505.19;6245461;22;45374;-78
2022/11/12 02:52:50;;;;;;;;;43.00;37.75;;;;;10.30;73.06;102574.78;6245992;22;45148;-78
2022/11/12 02:55:15;;;;;;;;;45.00;39.00;;;;;10.24;73.05;102564.06;6247468;22;45491;-77
2022/11/12 02:57:41;;;;;;;;;39.00;35.50;;;;;10.24;72.99;102561.44;6247310;22;45466;-77
2022/11/12 03:00:10;;;;;;;;;40.75;35.00;;;;;10.28;72.81;102573.84;6245172;22;45274;-77
2022/11/12 03:02:41;;;;;;;;;42.00;36.75;;;;;10.21;72.94;102569.25;6247915;22;45255;-77
2022/11/12 03:05:09;;;;;;;;;43.75;37.00;;;;;9.87;72.77;102510.44;6245285;22;45525;-77
2022/11/12 03:07:35;;;;;;;;;43.50;37.25;;;;;10.27;73.09;102586.97;6278280;22;46139;-78
2022/11/12 03:10:26;;;;;;;;;42.75;37.25;;;;;10.27;72.96;102571.16;6281930;22;45229;-78
2022/11/12 03:13:02;;;;;;;;;46.75;38.00;;;;;10.25;73.09;102572.84;6307605;22;45391;-78
2022/11/12 03:15:40;;;;;;;;;41.00;37.00;;;;;10.24;73.00;102576.34;6281182;22;45540;-78
2022/11/12 03:18:13;;;;;;;;;44.75;38.50;;;;;9.80;72.95;102484.81;6281299;22;47079;-79
2022/11/12 03:21:06;;;;;;;;;43.25;37.25;;;;;9.96;72.90;102506.28;6281337;22;45374;-78
2022/11/12 03:23:42;;;;;;;;;46.25;38.25;;;;;10.16;72.92;102553.34;6307502;22;45412;-78
2022/11/12 03:26:16;;;;;;;;;38.25;36.00;;;;;9.88;73.20;102511.31;6281418;22;45393;-78
2022/11/12 03:28:56;;;;;;;;;47.00;40.25;;;;;9.90;73.08;102518.41;6281798;22;46287;-78
2022/11/12 03:31:42;;;;;;;;;44.50;38.50;;;;;10.16;73.01;102565.63;6280255;22;45385;-78
2022/11/12 03:34:16;;;;;;;;;51.25;41.25;;;;;9.94;72.77;102522.94;6281405;22;45199;-79
2022/11/12 03:39:46;;;;;;;;;48.00;39.00;;;;;9.92;73.35;102518.47;6308296;22;45453;-78
2022/11/12 03:42:42;;;;;;;;;52.25;39.00;;;;;10.12;73.19;102554.09;6280690;22;45537;-79
2022/11/12 03:45:50;;;;;;;;;46.25;37.25;;;;;9.68;73.20;102474.84;6280744;22;45291;-79
2022/11/12 03:49:02;;;;;;;;;40.50;36.00;;;;;10.12;73.09;102545.31;6279873;22;45425;-81
2022/11/12 03:51:49;;;;;;;;;38.75;35.75;;;;;9.77;73.59;102500.50;6209198;22;45188;-78
2022/11/12 03:54:27;;;;;;;;;43.50;37.00;;;;;9.78;72.94;102498.75;6277400;22;45631;-78
2022/11/12 03:56:53;;;;;;;;;41.00;34.25;;;;;9.70;73.09;102502.09;6309653;22;45444;-78
2022/11/12 04:00:13;;;;;;;;;;;;;;;;;;;;;
2022/11/12 04:02:44;;;;;;;;;42.25;37.00;;;;;9.79;73.02;102517.22;6307794;22;75455;-78
2022/11/12 04:08:38;;;;;;;;;39.50;35.75;;;;;9.67;72.95;102493.19;6308148;22;45233;-78
2022/11/12 04:14:12;;;;;;;;;34.25;34.00;;;;;9.98;73.31;102559.84;6308338;22;45541;-78
2022/11/12 04:22:22;;;;;;;;;36.25;34.00;;;;;9.56;73.05;102498.16;6309375;22;45227;-80
2022/11/12 04:27:53;;;;;;;;;37.75;35.00;;;;;9.77;73.05;102532.06;6309291;22;45383;-80
2022/11/12 04:30:28;;;;;;;;;27.00;26.75;;;;;9.91;73.18;102558.75;6286649;22;45490;-79
2022/11/12 04:32:57;;;;;;;;;34.50;31.75;;;;;9.81;73.43;102539.22;6281053;22;45694;-79
2022/11/12 04:35:41;;;;;;;;;32.75;31.50;;;;;9.99;73.23;102574.75;6280902;22;47592;-80
2022/11/12 04:38:15;;;;;;;;;35.25;34.00;;;;;9.99;73.25;102577.41;6280616;22;45802;-80
2022/11/12 04:46:32;;;;;;;;;33.00;30.25;;;;;9.57;73.22;102507.84;6308925;22;45391;-80
2022/11/12 04:57:07;;;;;;;;;;;;;;;;;;;;;
2022/11/12 05:07:33;;;;;;;;;;;;;;;;;;;;;
2022/11/12 05:10:54;;;;;;;;;28.50;25.50;;;;;9.71;73.37;102561.72;6034515;23;72344;-79
2022/11/12 05:13:30;;;;;;;;;29.00;29.00;;;;;9.63;73.36;102534.31;6013730;23;45647;-79
2022/11/12 05:16:10;;;;;;;;;29.75;29.75;;;;;9.39;73.67;102484.53;6011150;23;45506;-79
2022/11/12 05:19:05;;;;;;;;;;;;;;;;;;;;;
2022/11/12 05:24:51;;;;;;;;;31.00;25.00;;;;;9.47;73.47;102504.03;6210655;22;45987;-80
2022/11/12 05:27:41;;;;;;;;;29.75;28.25;;;;;9.46;73.44;102496.09;6244475;22;45321;-79
2022/11/12 05:30:20;;;;;;;;;31.75;30.25;;;;;9.83;73.38;102555.03;6235943;22;45208;-80
2022/11/12 05:36:56;;;;;;;;;27.75;26.75;;;;;9.96;73.61;102567.66;6245860;22;46096;-79
2022/11/12 05:39:58;;;;;;;;;25.75;25.75;;;;;9.96;73.56;102569.41;6237577;22;45176;-80
2022/11/12 05:42:47;;;;;;;;;26.50;22.75;;;;;9.67;73.32;102507.22;6268726;22;45366;-81
2022/11/12 05:45:23;;;;;;;;;29.75;26.25;;;;;10.02;73.46;102559.94;6238642;22;45770;-79
2022/11/12 05:48:41;;;;;;;;;28.75;23.50;;;;;9.75;73.30;102517.97;6241786;22;45298;-79
2022/11/12 05:51:55;;;;;;;;;;;;;;;;;;;;;
2022/11/12 05:55:34;;;;;;;;;27.00;25.50;;;;;9.84;73.37;102504.22;6244962;22;69197;-80
2022/11/12 05:58:18;;;;;;;;;26.00;23.75;;;;;9.99;73.47;102535.28;6135125;22;45416;-79
2022/11/12 06:01:02;;;;;;;;;23.00;23.00;;;;;10.26;73.58;102566.72;6243298;22;47200;-80
2022/11/12 06:04:08;;;;;;;;;;;;;;;;;;;;;
2022/11/12 06:06:34;;;;;;;;;25.75;20.50;;;;;10.32;73.50;102585.38;6224084;22;70283;-80
2022/11/12 06:09:08;;;;;;;;;29.00;27.50;;;;;9.90;73.29;102499.09;6272592;22;45306;-79
2022/11/12 06:12:24;;;;;;;;;29.00;27.00;;;;;10.00;73.46;102510.78;6275608;22;47382;-80
2022/11/12 06:14:52;;;;;;;;;29.75;27.00;;;;;10.17;73.19;102533.16;6304697;22;45350;-78
2022/11/12 06:17:17;;;;;;;;;28.50;25.75;;;;;10.34;73.12;102565.22;6278294;22;45382;-79
2022/11/12 06:19:45;;;;;;;;;22.25;20.50;;;;;10.06;73.32;102524.09;6275885;22;45550;-79
2022/11/12 06:22:11;;;;;;;;;25.25;22.00;;;;;10.37;73.30;102574.13;6276720;22;45911;-79
2022/11/12 06:24:51;;;;;;;;;26.75;24.75;;;;;10.25;73.06;102550.06;6276762;22;45364;-79
2022/11/12 06:27:17;;;;;;;;;26.00;23.25;;;;;10.14;73.42;102536.59;6276212;22;45319;-79
2022/11/12 06:36:08;;;;;;;;;23.75;23.25;;;;;10.22;73.10;102562.25;6272024;22;45166;-79
2022/11/12 06:38:58;;;;;;;;;21.00;19.75;;;;;9.87;73.00;102517.44;6273481;22;45404;-79
2022/11/12 06:41:26;;;;;;;;;23.00;20.00;;;;;10.03;73.08;102550.34;6278012;22;45531;-78
2022/11/12 06:44:03;;;;;;;;;25.50;21.75;;;;;9.89;73.01;102529.78;6278100;22;45475;-78
2022/11/12 06:46:50;;;;;;;;;18.50;18.50;;;;;9.97;73.00;102556.31;6277685;22;45396;-77
2022/11/12 06:49:21;;;;;;;;;21.50;18.00;;;;;9.83;72.88;102545.38;6276423;22;45257;-79
2022/11/12 06:52:06;;;;;;;;;25.75;23.25;;;;;9.85;72.97;102558.59;6276412;22;45599;-79
2022/11/12 06:54:51;;;;;;;;;28.50;23.25;;;;;9.63;73.20;102534.31;6278614;22;46000;-80
2022/11/12 06:57:35;;;;;;;;;23.75;22.25;;;;;9.95;73.10;102597.47;6278095;22;45234;-79
2022/11/12 07:00:03;;;;;;;;;21.00;18.75;;;;;9.46;73.43;102519.75;6275968;22;45418;-78
2022/11/12 07:02:35;;;;;;;;;25.75;23.00;;;;;9.92;73.36;102598.28;6276480;22;45531;-79
2022/11/12 07:05:14;;;;;;;;;27.25;25.25;;;;;9.70;73.32;102562.56;6275813;22;48302;-80
2022/11/12 07:08:36;;;;;;;;;24.75;22.75;;;;;9.39;73.15;102508.19;6284382;22;45322;-80
2022/11/12 07:11:02;;;;;;;;;24.50;24.00;;;;;9.65;73.20;102563.25;6184465;23;45285;-77
2022/11/12 07:13:32;;;;;;;;;25.00;21.75;;;;;9.83;73.50;102591.84;6301862;22;45532;-77
2022/11/12 07:15:59;;;;;;;;;25.00;20.75;;;;;9.65;73.27;102564.19;6308495;22;45355;-76
2022/11/12 07:18:25;;;;;;;;;27.00;24.50;;;;;9.40;73.39;102516.97;6309216;22;45251;-78
2022/11/12 07:20:51;;;;;;;;;25.50;25.00;;;;;9.66;73.60;102579.09;6281866;22;45299;-76
2022/11/12 07:23:21;;;;;;;;;29.00;26.25;;;;;9.80;73.51;102602.28;6280810;22;45432;-76
2022/11/12 07:25:54;;;;;;;;;25.50;22.75;;;;;9.72;73.43;102595.03;6279775;22;47845;-78
2022/11/12 07:28:20;;;;;;;;;27.50;26.25;;;;;9.55;73.50;102566.50;6309141;22;45406;-78
2022/11/12 07:30:45;;;;;;;;;27.75;26.00;;;;;9.74;73.62;102602.09;6309188;22;45388;-79
2022/11/12 07:33:11;;;;;;;;;26.75;25.00;;;;;9.41;73.84;102534.50;6309586;22;45436;-79
2022/11/12 07:35:36;;;;;;;;;33.25;32.50;;;;;9.49;73.93;102552.31;6309319;22;45216;-78
2022/11/12 07:38:02;;;;;;;;;31.50;30.50;;;;;9.75;73.87;102604.75;6280640;22;45207;-79
2022/11/12 07:40:29;;;;;;;;;30.25;28.75;;;;;9.55;73.83;102562.13;6280504;22;45450;-79
2022/11/12 07:42:57;;;;;;;;;30.25;29.00;;;;;9.78;73.76;102596.06;6281012;22;45535;-77
2022/11/12 07:45:22;;;;;;;;;30.25;27.00;;;;;9.88;74.17;102612.16;6309048;22;46654;-78
2022/11/12 07:47:48;;;;;;;;;27.00;23.00;;;;;9.61;73.74;102567.53;6280582;22;45509;-77
2022/11/12 07:50:16;;;;;;;;;31.75;27.75;;;;;9.98;73.97;102617.72;6308474;22;45720;-80
2022/11/12 07:52:52;;;;;;;;;30.00;26.50;;;;;10.02;74.08;102622.22;6280530;22;45197;-79
2022/11/12 07:55:25;;;;;;;;;31.00;30.75;;;;;10.05;73.93;102627.56;6279755;22;47609;-79
2022/11/12 07:57:59;;;;;;;;;36.00;33.50;;;;;9.84;73.94;102578.75;6280667;22;45191;-79
2022/11/12 08:00:34;;;;;;;;;34.00;29.75;;;;;10.14;73.95;102630.47;6278940;22;45427;-79
2022/11/12 08:03:11;;;;;;;;;36.00;29.75;;;;;10.18;73.71;102637.59;6280211;22;45387;-80
2022/11/12 08:05:36;;;;;;;;;32.50;29.25;;;;;10.10;73.96;102623.31;6279449;22;46537;-79
2022/11/12 08:08:37;;;;;;;;;;;;;;;;;;;;;
2022/11/12 08:11:43;;;;;;;;;33.75;29.25;;;;;9.90;73.78;102567.50;6302108;22;70499;-80
2022/11/12 08:14:56;;;;;;;;;32.75;30.25;;;;;10.34;73.73;102641.56;6278723;22;45386;-80
2022/11/12 08:21:11;;;;;;;;;31.50;28.75;;;;;10.17;73.53;102591.06;6308601;22;45274;-79
2022/11/12 08:24:20;;;;;;;;;34.50;30.75;;;;;10.13;73.61;102573.41;6181281;23;45213;-80
2022/11/12 08:26:53;;;;;;;;;28.75;26.50;;;;;10.24;73.54;102585.13;6216306;22;45553;-78
2022/11/12 08:29:26;;;;;;;;;29.00;28.25;;;;;10.23;73.78;102587.72;6217315;22;46988;-79
2022/11/12 08:31:51;;;;;;;;;28.75;25.50;;;;;10.70;73.73;102652.22;6216139;22;45432;-79
2022/11/12 08:35:31;;;;;;;;;;;;;;;;;;;;;
2022/11/12 08:38:16;;;;;;;;;34.00;30.50;;;;;10.86;73.21;102674.59;6216211;22;45478;-80
2022/11/12 08:41:07;;;;;;;;;31.75;29.00;;;;;10.77;73.47;102642.72;6216152;22;46809;-80
2022/11/12 08:43:47;;;;;;;;;26.75;24.75;;;;;10.78;73.09;102620.81;6216426;22;45679;-80
2022/11/12 09:07:57;;;;;;;;;;;;;;;;;;;;;
2022/11/12 11:33:56;;;;;;;;;20.67;20.67;;;;;30.35;36.17;102549.53;6251706;22;46284;31
2022/11/12 11:37:27;;;;;;;;;22.67;20.33;;;;;30.57;35.26;102536.41;6242098;22;45397;-84
2022/11/12 12:18:06;;;;;;;;;;;;;;;;;;;;;
2022/11/12 12:21:37;;;;;;;;;27.33;24.33;;;;;32.82;29.51;102481.94;6274407;22;71543;-82
2022/11/12 12:35:18;;;;;;;;;;;;;;;;;;;;;
2022/11/12 12:56:03;;;;;;;;;;;;;;;;;;;;;
2022/11/12 12:59:40;;;;;;;;;33.75;31.50;;;;;28.58;30.73;102447.97;5991157;23;74689;-82
2022/11/12 13:06:34;;;;;;;;;;;;;;;;;;;;;
2022/11/12 13:09:43;;;;;;;;;36.00;30.50;;;;;27.17;32.83;102435.94;6022749;23;72560;-81
2022/11/12 17:17:40;;;;;;;;;51.50;41.75;;;;;15.16;60.92;102298.34;6308425;22;45380;-80
2022/11/12 17:20:27;;;;;;;;;;;;;;;;;;;;;
2022/11/12 21:56:39;;;;;;;;;75.25;62.50;;;;;12.56;69.76;102226.72;6258876;22;46930;-81
2022/11/12 22:02:21;;;;;;;;;159.50;141.25;;;;;12.32;69.61;102194.72;6258332;22;45380;-81
2022/11/12 22:05:02;;;;;;;;;141.67;125.00;;;;;12.41;70.17;102220.38;6252428;22;45435;-80
2022/11/12 22:07:43;;;;;;;;;;;;;;;;;;;;;
2022/11/12 22:10:15;;;;;;;;;131.33;115.67;;;;;12.20;70.58;102182.25;6280218;22;75418;-84
2022/11/12 22:27:24;;;;;;;;;;;;;;;;;;;;;
2022/11/12 22:30:22;;;;;;;;;76.25;59.50;;;;;12.17;69.70;102155.81;6147384;23;45631;-85
2022/11/12 22:33:31;;;;;;;;;;;;;;;;;;;;;
2022/11/12 22:50:44;;;;;;;;;;;;;;;;;;;;;
2022/11/12 22:53:14;;;;;;;;;68.25;54.75;;;;;11.83;69.87;102138.63;5996588;23;45667;-85
2022/11/12 22:56:32;;;;;;;;;76.00;57.00;;;;;12.12;69.97;102186.56;6006281;23;45232;-83
2022/11/12 22:58:58;;;;;;;;;73.00;56.25;;;;;11.73;70.32;102116.50;6011058;23;45478;-83
2022/11/12 23:01:42;;;;;;;;;73.25;57.25;;;;;11.77;70.59;102143.81;6012087;23;46836;-82
2022/11/12 23:04:19;;;;;;;;;68.50;54.75;;;;;11.99;70.77;102182.84;6062131;23;45279;-80
2022/11/12 23:07:01;;;;;;;;;71.75;56.00;;;;;11.56;70.56;102105.72;6098458;23;45396;-79
2022/11/12 23:09:36;;;;;;;;;75.50;58.25;;;;;11.85;71.03;102163.28;6214775;22;45565;-82
2022/11/12 23:12:03;;;;;;;;;74.50;57.50;;;;;11.80;70.82;102167.59;6219073;22;47945;-79
2022/11/12 23:14:28;;;;;;;;;71.00;56.50;;;;;11.60;71.41;102140.91;6241783;22;45503;-80
2022/11/12 23:16:57;;;;;;;;;76.25;58.50;;;;;11.66;71.63;102149.81;6216808;22;45423;-80
2022/11/12 23:19:22;;;;;;;;;69.75;54.00;;;;;11.57;71.58;102131.22;6244012;22;45390;-79
2022/11/12 23:21:48;;;;;;;;;68.00;54.25;;;;;11.76;71.61;102165.78;6242429;22;48227;-78
2022/11/12 23:24:14;;;;;;;;;67.00;52.50;;;;;11.67;72.03;102148.06;6244105;22;45750;-78
2022/11/12 23:26:39;;;;;;;;;71.50;56.00;;;;;11.72;72.13;102150.78;6216943;22;45420;-78
2022/11/12 23:29:05;;;;;;;;;71.25;56.00;;;;;11.56;72.28;102121.53;6243873;22;45359;-79
2022/11/12 23:31:31;;;;;;;;;71.25;54.50;;;;;11.49;72.35;102111.75;6244632;22;45485;-79
2022/11/12 23:34:01;;;;;;;;;69.00;54.00;;;;;11.52;72.50;102116.19;6244787;22;45433;-80
2022/11/12 23:36:28;;;;;;;;;66.50;52.75;;;;;11.49;72.31;102103.84;6244678;22;45581;-79
2022/11/12 23:38:54;;;;;;;;;65.50;53.50;;;;;11.76;72.52;102153.50;6244201;22;45402;-80
2022/11/12 23:41:24;;;;;;;;;68.50;53.75;;;;;11.69;72.30;102138.44;6217214;22;46832;-80
2022/11/12 23:43:50;;;;;;;;;151.00;126.33;;;;;11.82;72.43;102169.41;6244172;22;45414;-80
2022/11/12 23:46:16;;;;;;;;;148.00;132.25;;;;;11.80;72.67;102163.22;6217617;22;45640;-80
2022/11/12 23:48:42;;;;;;;;;85.25;76.75;;;;;11.64;72.69;102135.72;6245103;22;45796;-79
2022/11/12 23:51:11;;;;;;;;;73.25;57.50;;;;;11.54;72.81;102115.34;6219813;22;47894;-80
2022/11/12 23:53:37;;;;;;;;;69.25;55.25;;;;;11.43;72.71;102095.84;6218044;22;45729;-80
2022/11/12 23:56:05;;;;;;;;;73.00;55.75;;;;;11.65;72.53;102142.78;6245792;22;45542;-80
2022/11/12 23:58:31;;;;;;;;;77.25;61.50;;;;;11.68;72.62;102158.66;6242134;22;45489;-80
